Time;durP1;ratioP1;P1;durP2;ratioP2;P2;SDS_P1;SDS_P2;PMS_P1;PMS_P2;Temp;Humidity;BMP_temperature;BMP_pressure;BME280_temperature;BME280_humidity;BME280_pressure;Samples;Min_cycle;Max_cycle;Signal;HPM_P1;HPM_P2
2023/10/02 00:00:39;;;;;;;;;;;;;;;19.93;60.16;101647.66;4936729;29;19914;-78
2023/10/02 00:03:28;;;;;;;;;;;;;;;19.99;59.47;101652.56;4949534;28;20303;-78
2023/10/02 00:06:20;;;;;;;;;;;;;;;19.78;60.16;101645.69;4936391;29;19915;-78
2023/10/02 00:09:15;;;;;;;;;;;;;;;19.56;61.18;101650.66;4935735;29;19919;-77
2023/10/02 00:12:14;;;;;;;;;;;;;;;19.57;61.46;101649.50;4940429;29;19919;-77
2023/10/02 00:15:15;;;;;;;;;;;;;;;19.63;61.42;101641.78;4937377;29;19918;-77
2023/10/02 00:18:05;;;;;;;;;;;;;;;19.57;61.53;101645.94;4935613;29;19922;-77
2023/10/02 00:21:17;;;;;;;;;;;;;;;19.55;61.95;101649.06;4936073;29;19914;-77
2023/10/02 00:24:07;;;;;;;;;;;;;;;19.56;62.05;101650.66;4948857;29;19915;-77
2023/10/02 00:27:02;;;;;;;;;;;;;;;19.55;61.99;101659.31;4960496;28;19914;-78
2023/10/02 00:29:54;;;;;;;;;;;;;;;19.59;62.22;101652.72;4954308;29;19914;-77
2023/10/02 00:32:53;;;;;;;;;;;;;;;19.77;61.39;101655.94;4953993;28;19918;-77
2023/10/02 00:35:54;;;;;;;;;;;;;;;19.85;60.71;101651.41;4953855;29;19914;-77
2023/10/02 00:38:47;;;;;;;;;;;;;;;19.77;61.04;101655.94;4954235;28;19918;-77
2023/10/02 00:41:42;;;;;;;;;;;;;;;19.66;61.52;101654.84;4945164;29;19918;-77
2023/10/02 00:44:54;;;;;;;;;;;;;;;19.69;61.58;101659.69;4955551;28;19914;-77
2023/10/02 00:47:48;;;;;;;;;;;;;;;19.73;61.38;101660.56;4958042;28;19914;-77
2023/10/02 00:50:49;;;;;;;;;;;;;;;19.72;61.48;101663.66;4955882;28;19918;-77
2023/10/02 00:53:42;;;;;;;;;;;;;;;19.70;61.21;101661.28;4954463;29;20291;-77
2023/10/02 00:56:33;;;;;;;;;;;;;;;19.69;61.69;101658.88;4953536;29;19952;-77
2023/10/02 00:59:26;;;;;;;;;;;;;;;19.59;61.78;101661.00;4940792;29;19914;-77
2023/10/02 01:02:20;;;;;;;;;;;;;;;19.60;62.05;101662.59;4958068;28;19914;-77
2023/10/02 01:05:14;;;;;;;;;;;;;;;19.45;62.55;101654.28;4953332;29;19914;-77
2023/10/02 01:08:06;;;;;;;;;;;;;;;19.40;62.91;101660.81;4953211;28;19919;-77
2023/10/02 01:11:01;;;;;;;;;;;;;;;19.37;62.54;101658.75;4954235;29;19922;-78
2023/10/02 01:13:51;;;;;;;;;;;;;;;19.25;62.83;101660.78;4941307;29;20387;-77
2023/10/02 01:16:50;;;;;;;;;;;;;;;19.36;62.64;101648.88;4945291;28;19914;-77
2023/10/02 01:19:58;;;;;;;;;;;;;;;19.60;61.75;101648.81;4953113;28;19914;-77
2023/10/02 01:22:55;;;;;;;;;;;;;;;19.69;61.02;101636.78;4939794;29;19914;-77
2023/10/02 01:25:50;;;;;;;;;;;;;;;19.48;61.69;101637.81;4956059;28;19915;-77
2023/10/02 01:28:54;;;;;;;;;;;;;;;19.28;62.66;101643.53;4940578;29;19914;-77
2023/10/02 01:31:46;;;;;;;;;;;;;;;19.17;63.19;101637.72;4959270;28;19922;-77
2023/10/02 01:34:36;;;;;;;;;;;;;;;19.31;62.78;101632.59;4954791;28;19930;-77
2023/10/02 01:37:35;;;;;;;;;;;;;;;19.23;62.94;101639.06;4952405;28;19914;-77
2023/10/02 01:40:34;;;;;;;;;;;;;;;19.35;62.88;101630.72;4953865;29;19914;-77
2023/10/02 01:43:24;;;;;;;;;;;;;;;19.29;62.96;101634.09;4953776;29;19919;-77
2023/10/02 01:46:22;;;;;;;;;;;;;;;19.17;63.16;101632.19;4953734;29;19918;-77
2023/10/02 01:49:24;;;;;;;;;;;;;;;19.33;62.48;101627.53;4953201;28;19918;-77
2023/10/02 01:52:16;;;;;;;;;;;;;;;19.32;62.60;101633.38;4957628;28;19938;-78
2023/10/02 01:55:07;;;;;;;;;;;;;;;19.41;62.24;101632.06;4952710;29;19915;-77
2023/10/02 01:58:16;;;;;;;;;;;;;;;19.40;62.46;101627.69;4953227;28;19918;-76
2023/10/02 02:01:08;;;;;;;;;;;;;;;19.44;61.97;101625.06;4942812;29;19914;-77
2023/10/02 02:03:58;;;;;;;;;;;;;;;19.35;62.34;101627.97;4954128;28;20375;-78
2023/10/02 02:06:54;;;;;;;;;;;;;;;19.25;62.99;101627.69;4959251;28;19914;-77
2023/10/02 02:09:43;;;;;;;;;;;;;;;19.37;62.38;101625.66;4952520;28;19922;-77
2023/10/02 02:12:44;;;;;;;;;;;;;;;19.47;62.37;101625.19;4940106;29;19918;-77
2023/10/02 02:15:34;;;;;;;;;;;;;;;19.42;62.41;101624.59;4956465;28;20254;-78
2023/10/02 02:18:26;;;;;;;;;;;;;;;19.17;63.37;101632.19;4952860;28;19919;-77
2023/10/02 02:21:16;;;;;;;;;;;;;;;19.13;63.44;101621.06;4958853;29;20379;-77
2023/10/02 02:24:11;;;;;;;;;;;;;;;19.15;63.13;101629.78;4952513;29;19914;-77
2023/10/02 02:27:04;;;;;;;;;;;;;;;19.07;63.75;101629.94;4953351;29;19914;-77
2023/10/02 02:29:56;;;;;;;;;;;;;;;19.13;63.58;101620.25;4952353;29;19918;-77
2023/10/02 02:32:52;;;;;;;;;;;;;;;19.17;63.06;101618.41;4954821;29;19918;-77
2023/10/02 02:35:44;;;;;;;;;;;;;;;19.05;63.63;101623.94;4953284;28;19914;-78
2023/10/02 02:38:36;;;;;;;;;;;;;;;18.80;64.36;101629.56;4945424;29;19922;-77
2023/10/02 02:41:28;;;;;;;;;;;;;;;18.85;64.00;101620.22;4956974;29;19915;-77
2023/10/02 02:44:36;;;;;;;;;;;;;;;18.70;64.48;101627.28;4947751;28;20299;-77
2023/10/02 02:47:50;;;;;;;;;;;;;;;18.56;65.44;101623.28;4957523;28;20371;-77
2023/10/02 02:50:43;;;;;;;;;;;;;;;18.57;65.51;101620.19;4959623;28;19918;-78
2023/10/02 02:53:33;;;;;;;;;;;;;;;18.44;66.29;101618.56;4955735;29;20395;-78
2023/10/02 02:56:27;;;;;;;;;;;;;;;18.56;65.53;101626.03;4956301;28;19923;-77
2023/10/02 02:59:20;;;;;;;;;;;;;;;18.56;65.92;101623.28;4956153;28;19915;-78
2023/10/02 03:02:18;;;;;;;;;;;;;;;18.58;65.59;101621.81;4956640;29;19915;-77
2023/10/02 03:05:15;;;;;;;;;;;;;;;18.79;64.83;101630.69;4960528;28;19915;-77
2023/10/02 03:08:07;;;;;;;;;;;;;;;18.58;65.55;101626.50;4944409;29;19915;-77
2023/10/02 03:10:58;;;;;;;;;;;;;;;18.69;65.35;101630.41;4961566;28;19918;-78
2023/10/02 03:13:48;;;;;;;;;;;;;;;19.03;63.88;101631.78;4956462;29;20376;-77
2023/10/02 03:16:40;;;;;;;;;;;;;;;19.04;63.23;101631.44;4955685;29;19914;-77
2023/10/02 03:19:32;;;;;;;;;;;;;;;18.98;63.85;101641.13;4954961;28;19917;-77
2023/10/02 03:22:24;;;;;;;;;;;;;;;19.15;62.92;101634.47;4955362;29;19914;-78
2023/10/02 03:25:28;;;;;;;;;;;;;;;19.05;62.87;101634.97;4956233;29;19914;-77
2023/10/02 03:28:32;;;;;;;;;;;;;;;18.80;63.61;101639.75;4958698;28;19915;-77
2023/10/02 03:31:34;;;;;;;;;;;;;;;18.82;63.90;101636.69;4955201;29;19918;-78
2023/10/02 03:34:34;;;;;;;;;;;;;;;18.88;63.21;101646.31;4956021;29;19922;-77
2023/10/02 03:37:25;;;;;;;;;;;;;;;18.72;64.05;101646.22;4956963;28;19914;-77
2023/10/02 03:40:20;;;;;;;;;;;;;;;18.69;64.05;101644.97;4955861;29;19918;-77
2023/10/02 03:43:21;;;;;;;;;;;;;;;18.53;64.42;101641.28;4955840;29;19915;-77
2023/10/02 03:46:14;;;;;;;;;;;;;;;18.79;63.28;101638.97;4955847;29;19914;-77
2023/10/02 03:49:09;;;;;;;;;;;;;;;18.56;64.40;101640.63;4956027;28;19918;-77
2023/10/02 03:51:58;;;;;;;;;;;;;;;18.42;64.64;101639.34;4955468;29;19926;-77
2023/10/02 03:54:54;;;;;;;;;;;;;;;18.37;64.55;101634.88;4955077;28;20319;-77
2023/10/02 03:57:52;;;;;;;;;;;;;;;18.34;65.23;101643.81;4957728;28;20346;-77
2023/10/02 04:00:47;;;;;;;;;;;;;;;18.55;64.14;101641.78;4955656;28;19914;-77
2023/10/02 04:03:53;;;;;;;;;;;;;;;18.53;64.49;101637.75;4954502;29;19918;-77
2023/10/02 04:06:45;;;;;;;;;;;;;;;18.60;64.37;101636.03;4955407;29;19915;-77
2023/10/02 04:09:36;;;;;;;;;;;;;;;18.59;63.48;101645.44;4953911;28;19914;-77
2023/10/02 04:12:50;;;;;;;;;;;;;;;18.76;62.98;101642.44;4957408;28;19922;-77
2023/10/02 04:15:45;;;;;;;;;;;;;;;18.50;64.01;101647.47;4946507;28;20519;-77
2023/10/02 04:18:59;;;;;;;;;;;;;;;18.47;64.07;101645.44;4955597;28;19918;-77
2023/10/02 04:21:53;;;;;;;;;;;;;;;18.24;65.63;101649.78;4948143;28;19914;-77
2023/10/02 04:24:58;;;;;;;;;;;;;;;18.02;66.19;101648.31;4956517;28;19915;-78
2023/10/02 04:30:45;;;;;;;;;;;;;;;18.06;66.79;101648.41;4966928;28;19914;-78
2023/10/02 04:33:38;;;;;;;;;;;;;;;18.12;65.81;101658.06;4940821;28;20306;-77
2023/10/02 04:36:34;;;;;;;;;;;;;;;18.24;65.69;101647.03;4948971;28;19914;-77
2023/10/02 04:42:25;;;;;;;;;;;;;;;18.35;65.28;101653.69;4967102;28;19915;-76
2023/10/02 04:45:23;;;;;;;;;;;;;;;18.38;64.93;101653.81;4939416;29;19918;-77
2023/10/02 04:48:18;;;;;;;;;;;;;;;18.31;65.41;101656.34;4936246;29;19915;-76
2023/10/02 04:51:12;;;;;;;;;;;;;;;18.53;64.28;101648.75;4933839;29;19919;-77
2023/10/02 04:54:05;;;;;;;;;;;;;;;18.55;63.96;101649.22;4937109;29;19919;-77
2023/10/02 04:57:11;;;;;;;;;;;;;;;18.31;64.30;101656.34;4934462;29;19914;-76
2023/10/02 05:00:19;;;;;;;;;;;;;;;18.12;65.60;101655.31;4932907;29;19914;-77
2023/10/02 05:03:11;;;;;;;;;;;;;;;17.97;66.08;101659.53;4964530;28;19914;-77
2023/10/02 05:06:16;;;;;;;;;;;;;;;17.95;65.72;101659.88;4976647;28;19914;-77
2023/10/02 05:12:04;;;;;;;;;;;;;;;18.10;65.74;101660.34;4973978;28;20380;-77
2023/10/02 05:14:55;;;;;;;;;;;;;;;18.18;65.71;101662.19;4955465;28;19914;-77
2023/10/02 05:17:46;;;;;;;;;;;;;;;18.23;65.62;101659.22;4960666;28;19915;-77
2023/10/02 05:20:38;;;;;;;;;;;;;;;18.38;64.40;101666.78;4939871;28;20291;-77
2023/10/02 05:23:33;;;;;;;;;;;;;;;18.35;64.41;101671.03;4964346;28;19914;-77
2023/10/02 05:26:44;;;;;;;;;;;;;;;18.21;64.83;101667.00;4966886;28;20370;-77
2023/10/02 05:29:39;;;;;;;;;;;;;;;18.23;65.26;101671.03;4965990;28;19914;-77
2023/10/02 05:32:34;;;;;;;;;;;;;;;18.51;64.63;101673.88;4942044;28;20327;-78
2023/10/02 05:35:23;;;;;;;;;;;;;;;18.65;64.00;101685.38;4960148;28;19915;-77
2023/10/02 05:38:16;;;;;;;;;;;;;;;18.75;63.43;101686.84;4945482;28;20346;-78
2023/10/02 05:41:11;;;;;;;;;;;;;;;18.82;63.13;101683.53;4950962;28;19913;-77
2023/10/02 05:44:02;;;;;;;;;;;;;;;18.45;63.66;101690.97;4955541;28;19914;-77
2023/10/02 05:46:57;;;;;;;;;;;;;;;18.65;63.31;101696.41;4953887;28;19915;-77
2023/10/02 05:49:50;;;;;;;;;;;;;;;18.83;62.93;101693.41;4919594;29;1362747;-76
2023/10/02 05:52:48;;;;;;;;;;;;;;;18.94;62.84;101705.56;4944436;28;19919;-77
2023/10/02 05:58:49;;;;;;;;;;;;;;;19.02;62.52;101712.88;4966020;28;19914;-77
2023/10/02 06:01:42;;;;;;;;;;;;;;;18.99;63.02;101714.41;4950719;28;19928;-77
2023/10/02 06:04:34;;;;;;;;;;;;;;;18.99;63.28;101724.63;4938176;29;20392;-78
2023/10/02 06:10:35;;;;;;;;;;;;;;;19.13;63.20;101725.03;4955173;28;20294;-78
2023/10/02 06:13:37;;;;;;;;;;;;;;;19.21;63.37;101727.66;4976108;28;19919;-78
2023/10/02 06:16:30;;;;;;;;;;;;;;;19.36;63.24;101728.06;4948962;29;19914;-77
2023/10/02 06:19:22;;;;;;;;;;;;;;;19.51;62.89;101730.13;4944342;28;20388;-78
2023/10/02 06:22:18;;;;;;;;;;;;;;;19.60;62.44;101736.31;4951068;28;19943;-77
2023/10/02 06:25:17;;;;;;;;;;;;;;;19.66;62.69;101734.09;4964217;28;19914;-78
2023/10/02 06:28:23;;;;;;;;;;;;;;;19.79;62.29;101738.41;4950538;28;19913;-78
2023/10/02 06:31:24;;;;;;;;;;;;;;;19.85;62.01;101742.50;4971204;28;20302;-78
2023/10/02 06:34:14;;;;;;;;;;;;;;;19.88;62.32;101744.56;4976565;28;19918;-78
2023/10/02 06:37:10;;;;;;;;;;;;;;;19.88;62.42;101750.09;4976594;28;19914;-78
2023/10/02 06:40:07;;;;;;;;;;;;;;;19.92;62.31;101749.00;4980132;28;19914;-78
2023/10/02 06:43:00;;;;;;;;;;;;;;;19.95;63.34;101747.53;4956554;28;19914;-78
2023/10/02 06:46:06;;;;;;;;;;;;;;;19.92;65.13;101751.78;4955095;28;19922;-75
2023/10/02 06:48:55;;;;;;;;;;;;;;;20.11;63.34;101758.59;4959814;28;19922;-75
2023/10/02 06:51:44;;;;;;;;;;;;;;;20.27;63.69;101760.19;4975720;28;19922;-76
2023/10/02 06:54:42;;;;;;;;;;;;;;;20.42;63.09;101758.63;4979354;28;19914;-75
2023/10/02 06:57:36;;;;;;;;;;;;;;;20.53;62.86;101758.91;4990050;28;19918;-76
2023/10/02 07:00:36;;;;;;;;;;;;;;;20.57;62.05;101762.56;4965184;28;19914;-76
2023/10/02 07:03:28;;;;;;;;;;;;;;;20.36;61.82;101768.38;4937241;29;19915;-75
2023/10/02 07:06:20;;;;;;;;;;;;;;;20.44;60.72;101767.38;4959409;28;19919;-75
2023/10/02 07:09:12;;;;;;;;;;;;;;;20.77;60.43;101775.31;4936768;29;19919;-75
2023/10/02 07:25:26;;;;;;;;;;;;;;;19.99;64.80;101778.78;5042174;28;19921;-77
2023/10/02 07:28:18;;;;;;;;;;;;;;;20.35;63.24;101777.81;5009045;28;20276;-76
2023/10/02 07:31:12;;;;;;;;;;;;;;;20.72;62.77;101781.91;5026713;28;19925;-77
2023/10/02 07:34:02;;;;;;;;;;;;;;;20.37;63.79;101773.50;5023952;28;20400;-77
2023/10/02 07:36:54;;;;;;;;;;;;;;;20.02;64.90;101776.13;5008853;28;20300;-78
2023/10/02 07:39:45;;;;;;;;;;;;;;;20.07;64.51;101786.09;5021451;28;19918;-77
2023/10/02 07:42:37;;;;;;;;;;;;;;;20.35;63.92;101775.84;5021401;28;19922;-78
2023/10/02 07:45:30;;;;;;;;;;;;;;;20.08;64.47;101782.19;5036879;28;20388;-77
2023/10/02 07:48:22;;;;;;;;;;;;;;;20.23;64.24;101788.88;5024331;28;20364;-77
2023/10/02 07:51:09;;;;;;;;;;;;;;;20.50;63.63;101793.59;5004660;28;19918;-77
2023/10/02 07:54:01;;;;;;;;;;;;;;;21.01;61.85;101788.09;5008182;28;19922;-77
2023/10/02 07:56:53;;;;;;;;;;;;;;;20.77;62.85;101786.38;5008785;28;20392;-77
2023/10/02 07:59:45;;;;;;;;;;;;;;;20.70;63.24;101789.75;5005589;28;19917;-77
2023/10/02 08:02:37;;;;;;;;;;;;;;;20.67;63.66;101786.91;5031123;28;19918;-77
2023/10/02 08:05:30;;;;;;;;;;;;;;;20.92;63.26;101788.31;5034354;28;19917;-77
2023/10/02 08:08:24;;;;;;;;;;;;;;;21.04;62.64;101790.94;5008440;28;19918;-77
2023/10/02 08:11:13;;;;;;;;;;;;;;;20.85;62.45;101793.66;5002499;28;19918;-77
2023/10/02 08:14:06;;;;;;;;;;;;;;;21.32;60.97;101791.63;5000376;28;20387;-77
2023/10/02 08:17:01;;;;;;;;;;;;;;;21.72;59.59;101796.03;5001824;28;20383;-77
2023/10/02 08:19:56;;;;;;;;;;;;;;;21.71;59.21;101792.47;5007183;28;19921;-77
2023/10/02 08:22:51;;;;;;;;;;;;;;;21.73;58.08;101797.63;5022019;28;19918;-78
2023/10/02 08:25:43;;;;;;;;;;;;;;;21.29;59.73;101792.34;4997966;28;19917;-78
2023/10/02 08:28:38;;;;;;;;;;;;;;;21.28;60.42;101795.50;4994810;28;19934;-78
2023/10/02 08:31:32;;;;;;;;;;;;;;;21.46;60.64;101798.63;5007139;28;19921;-80
2023/10/02 08:34:24;;;;;;;;;;;;;;;21.69;59.14;101799.50;5008498;28;19922;-78
2023/10/02 08:37:16;;;;;;;;;;;;;;;21.90;58.15;101797.19;4992501;28;19918;-78
2023/10/02 08:40:08;;;;;;;;;;;;;;;22.16;57.54;101796.50;4994738;28;19922;-78
2023/10/02 08:43:00;;;;;;;;;;;;;;;22.22;58.02;101802.56;5023649;28;20335;-78
2023/10/02 08:45:54;;;;;;;;;;;;;;;22.52;56.13;101798.75;4993530;28;19918;-77
2023/10/02 08:48:46;;;;;;;;;;;;;;;22.78;55.32;101791.69;5007396;28;19921;-76
2023/10/02 08:51:38;;;;;;;;;;;;;;;22.96;55.25;101788.00;4994538;28;20387;-76
2023/10/02 08:54:30;;;;;;;;;;;;;;;22.83;54.87;101794.94;5006447;28;19925;-78
2023/10/02 08:57:22;;;;;;;;;;;;;;;22.61;55.55;101784.63;5024201;28;19921;-78
2023/10/02 09:00:19;;;;;;;;;;;;;;;22.69;55.33;101786.38;5021330;28;19921;-78
2023/10/02 09:03:15;;;;;;;;;;;;;;;22.99;54.54;101795.59;5005987;28;19918;-78
2023/10/02 09:06:25;;;;;;;;;;;;;;;22.92;54.92;101778.81;4988822;28;19917;-78
2023/10/02 09:09:29;;;;;;;;;;;;;;;22.73;55.08;101781.72;4994197;28;19925;-76
2023/10/02 09:24:00;;;;;;;;;;;;;;;23.35;53.36;101771.13;5038935;28;19921;-76
2023/10/02 09:26:53;;;;;;;;;;;;;;;23.35;53.43;101774.69;5030601;28;19917;-79
2023/10/02 09:29:47;;;;;;;;;;;;;;;23.38;52.92;101767.56;5030799;28;20379;-77
2023/10/02 09:32:47;;;;;;;;;;;;;;;23.55;52.33;101764.28;5031138;28;19921;-78
2023/10/02 09:35:46;;;;;;;;;;;;;;;23.56;52.02;101765.88;5023699;28;19922;-77
2023/10/02 09:38:42;;;;;;;;;;;;;;;23.61;52.16;101765.53;5030233;28;19917;-77
2023/10/02 09:41:35;;;;;;;;;;;;;;;23.56;51.98;101763.09;5018278;28;19917;-77
2023/10/02 09:44:27;;;;;;;;;;;;;;;24.21;50.73;101757.88;5016191;28;19921;-77
2023/10/02 09:47:25;;;;;;;;;;;;;;;24.47;49.43;101768.03;5016908;28;19921;-77
2023/10/02 09:50:23;;;;;;;;;;;;;;;24.52;49.27;101761.31;5019009;28;19921;-77
2023/10/02 09:53:16;;;;;;;;;;;;;;;24.41;49.30;101764.00;5020614;28;19922;-77
2023/10/02 09:56:19;;;;;;;;;;;;;;;23.93;50.51;101753.97;5008578;28;19917;-77
2023/10/02 09:59:20;;;;;;;;;;;;;;;23.70;51.34;101752.16;5027805;28;19917;-77
2023/10/02 10:08:28;;;;;;;;;;;;;;;24.78;48.51;101738.88;5008650;28;19917;-77
2023/10/02 10:11:20;;;;;;;;;;;;;;;25.00;48.21;101739.81;5033639;28;20387;-77
2023/10/02 10:14:35;;;;;;;;;;;;;;;25.21;47.07;101739.94;5022068;28;19922;-77
2023/10/02 10:17:28;;;;;;;;;;;;;;;25.37;46.76;101737.63;5013008;28;19921;-77
2023/10/02 10:20:20;;;;;;;;;;;;;;;25.21;46.82;101737.16;5022736;28;19917;-77
2023/10/02 10:23:31;;;;;;;;;;;;;;;25.25;46.88;101729.63;5016778;28;19918;-76
2023/10/02 10:26:39;;;;;;;;;;;;;;;25.02;47.57;101726.31;5014017;28;20395;-77
2023/10/02 10:29:44;;;;;;;;;;;;;;;25.03;47.28;101733.50;4986972;28;20379;-75
2023/10/02 10:36:08;;;;;;;;;;;;;;;25.48;46.43;101732.91;5002164;28;19917;-77
2023/10/02 10:39:30;;;;;;;;;;;;;;;26.01;45.13;101734.28;5009965;28;19925;-76
2023/10/02 10:42:10;;;;;;;;;;;;;;;26.09;44.94;101721.94;5003961;28;19917;-77
2023/10/02 10:45:03;;;;;;;;;;;;;;;26.13;44.96;101722.72;5009980;28;19921;-77
2023/10/02 10:47:55;;;;;;;;;;;;;;;26.07;45.45;101721.53;5007902;28;19917;-77
2023/10/02 10:50:56;;;;;;;;;;;;;;;26.38;44.43;101710.41;5009396;28;19918;-76
2023/10/02 10:53:47;;;;;;;;;;;;;;;26.34;44.99;101714.41;4993882;28;19921;-77
2023/10/02 10:56:43;;;;;;;;;;;;;;;26.34;45.21;101712.41;4999833;28;19929;-77
2023/10/02 10:59:37;;;;;;;;;;;;;;;26.80;44.10;101703.19;5011215;28;19917;-78
2023/10/02 11:02:28;;;;;;;;;;;;;;;26.65;43.66;101704.41;4992690;28;20427;-77
2023/10/02 11:05:19;;;;;;;;;;;;;;;26.54;43.66;101706.41;4994034;28;19917;-77
2023/10/02 11:08:28;;;;;;;;;;;;;;;28.02;40.76;101699.47;5000680;28;19917;-78
2023/10/02 11:11:26;;;;;;;;;;;;;;;32.01;33.40;101700.09;5006807;28;19917;-78
2023/10/02 11:14:24;;;;;;;;;;;;;;;39.07;23.33;101713.81;5013563;28;19921;-78
2023/10/02 11:17:28;;;;;;;;;;;;;;;41.51;19.98;101720.50;5013739;28;19917;-78
2023/10/02 11:20:31;;;;;;;;;;;;;;;44.79;16.72;101729.59;5013514;28;19918;-78
2023/10/02 11:23:24;;;;;;;;;;;;;;;46.13;14.89;101717.69;5012992;28;19921;-78
2023/10/02 11:26:13;;;;;;;;;;;;;;;46.62;14.08;101723.41;4996509;28;19917;-77
2023/10/02 11:29:19;;;;;;;;;;;;;;;43.82;16.42;101706.72;5004624;28;19917;-78
2023/10/02 11:32:26;;;;;;;;;;;;;;;45.46;15.15;101711.91;5013076;28;19922;-78
2023/10/02 11:35:18;;;;;;;;;;;;;;;41.61;18.61;101693.31;5003491;28;20396;-77
2023/10/02 11:38:10;;;;;;;;;;;;;;;44.02;16.47;101702.00;5016733;28;19922;-77
2023/10/02 11:41:02;;;;;;;;;;;;;;;43.42;16.99;101690.88;5005181;28;19917;-78
2023/10/02 11:43:56;;;;;;;;;;;;;;;45.71;14.49;101684.72;5027857;28;19918;-78
2023/10/02 11:46:47;;;;;;;;;;;;;;;43.64;16.60;101677.81;5019326;28;19917;-77
2023/10/02 11:49:39;;;;;;;;;;;;;;;42.46;17.90;101662.63;5017783;28;19922;-79
2023/10/02 11:52:31;;;;;;;;;;;;;;;41.83;17.55;101664.88;5014155;28;19922;-78
2023/10/02 11:55:23;;;;;;;;;;;;;;;47.93;12.89;101671.91;5017806;28;19917;-78
2023/10/02 11:58:15;;;;;;;;;;;;;;;45.23;14.40;101667.38;5005184;28;19918;-79
2023/10/02 12:01:07;;;;;;;;;;;;;;;44.85;14.56;101655.69;5007177;28;19918;-79
2023/10/02 12:03:59;;;;;;;;;;;;;;;36.88;22.45;101637.50;5000684;28;19917;-79
2023/10/02 12:06:52;;;;;;;;;;;;;;;38.06;21.28;101631.38;5015450;28;19918;-78
2023/10/02 12:09:44;;;;;;;;;;;;;;;38.16;21.70;101634.94;5003390;28;19917;-77
2023/10/02 12:12:37;;;;;;;;;;;;;;;40.62;19.14;101628.31;5008204;28;19921;-77
2023/10/02 12:15:29;;;;;;;;;;;;;;;45.87;14.31;101643.50;5002891;28;19921;-78
2023/10/02 12:18:21;;;;;;;;;;;;;;;47.00;13.24;101646.38;4998664;28;20315;-77
2023/10/02 12:21:16;;;;;;;;;;;;;;;47.31;13.12;101634.03;5002648;28;19918;-79
2023/10/02 12:24:06;;;;;;;;;;;;;;;47.73;12.69;101632.22;4998775;28;19917;-78
2023/10/02 12:26:58;;;;;;;;;;;;;;;39.10;20.04;101618.13;4993321;28;19918;-79
2023/10/02 12:29:50;;;;;;;;;;;;;;;31.83;30.00;101606.91;4993980;28;19918;-79
2023/10/02 12:32:42;;;;;;;;;;;;;;;30.56;32.25;101599.25;4992922;28;19925;-79
2023/10/02 12:35:41;;;;;;;;;;;;;;;28.57;36.58;101592.25;4995516;28;19918;-77
2023/10/02 12:38:30;;;;;;;;;;;;;;;27.90;37.52;101583.28;4993562;28;19918;-79
2023/10/02 12:41:27;;;;;;;;;;;;;;;27.79;38.18;101582.59;4992889;28;19922;-79
2023/10/02 12:44:19;;;;;;;;;;;;;;;28.14;37.69;101572.34;4992923;28;19921;-78
2023/10/02 12:47:11;;;;;;;;;;;;;;;27.41;38.87;101578.88;4992370;28;19918;-78
2023/10/02 12:50:03;;;;;;;;;;;;;;;27.71;38.38;101580.28;4991600;28;19918;-78
2023/10/02 12:52:59;;;;;;;;;;;;;;;27.68;38.59;101575.50;4992055;28;19925;-78
2023/10/02 12:55:52;;;;;;;;;;;;;;;27.38;39.71;101573.31;4992399;28;19918;-77
2023/10/02 12:58:44;;;;;;;;;;;;;;;27.38;39.29;101568.50;4992442;28;19918;-78
2023/10/02 13:01:36;;;;;;;;;;;;;;;27.24;39.90;101569.41;4991315;28;19917;-78
2023/10/02 13:04:28;;;;;;;;;;;;;;;27.22;40.04;101565.44;4991397;28;20312;-79
2023/10/02 13:07:21;;;;;;;;;;;;;;;26.71;41.04;101564.06;4992184;28;20378;-78
2023/10/02 13:10:13;;;;;;;;;;;;;;;25.83;43.12;101555.88;4996264;28;20384;-78
2023/10/02 13:13:05;;;;;;;;;;;;;;;26.03;42.75;101557.03;5007421;28;19922;-78
2023/10/02 13:15:55;;;;;;;;;;;;;;;26.29;42.14;101553.03;4992216;28;19918;-79
2023/10/02 13:18:45;;;;;;;;;;;;;;;26.08;42.64;101547.47;4992001;28;19917;-78
2023/10/02 13:21:37;;;;;;;;;;;;;;;26.04;42.36;101547.50;4991866;28;19918;-79
2023/10/02 13:24:26;;;;;;;;;;;;;;;25.89;43.28;101540.34;4991846;28;20299;-79
2023/10/02 13:27:18;;;;;;;;;;;;;;;26.31;41.87;101542.28;4995068;28;20319;-78
2023/10/02 13:30:19;;;;;;;;;;;;;;;26.66;40.55;101535.78;4990941;28;19917;-79
2023/10/02 13:33:11;;;;;;;;;;;;;;;26.49;41.18;101534.66;4991464;28;19921;-78
2023/10/02 13:36:03;;;;;;;;;;;;;;;26.35;41.72;101534.69;4991859;28;19941;-78
2023/10/02 13:39:01;;;;;;;;;;;;;;;26.43;41.37;101527.88;4991359;28;19918;-76
2023/10/02 13:41:56;;;;;;;;;;;;;;;26.23;42.14;101533.13;4994217;28;20372;-78
2023/10/02 13:44:48;;;;;;;;;;;;;;;26.10;42.46;101522.78;4992642;28;20639;-78
2023/10/02 13:47:40;;;;;;;;;;;;;;;25.69;43.66;101528.00;4996135;28;20112;-78
2023/10/02 13:50:33;;;;;;;;;;;;;;;25.38;43.88;101521.22;4991746;28;20400;-78
2023/10/02 13:53:25;;;;;;;;;;;;;;;25.04;45.39;101520.78;4990877;28;20300;-78
2023/10/02 13:56:21;;;;;;;;;;;;;;;25.28;44.08;101519.22;4991664;28;19922;-78
2023/10/02 13:59:12;;;;;;;;;;;;;;;25.67;43.32;101505.31;4993611;28;19921;-78
2023/10/02 14:02:04;;;;;;;;;;;;;;;25.52;43.66;101505.28;5005653;28;20400;-78
2023/10/02 14:04:56;;;;;;;;;;;;;;;26.01;42.30;101509.25;5006562;28;19918;-77
2023/10/02 14:07:48;;;;;;;;;;;;;;;26.26;41.14;101512.03;5018665;28;19918;-78
2023/10/02 14:10:38;;;;;;;;;;;;;;;26.34;40.59;101506.00;5006046;28;19922;-78
2023/10/02 14:13:30;;;;;;;;;;;;;;;26.12;41.72;101500.84;4999800;28;19921;-78
2023/10/02 14:16:22;;;;;;;;;;;;;;;26.20;41.59;101497.66;5000665;28;20403;-78
2023/10/02 14:19:15;;;;;;;;;;;;;;;26.32;40.62;101491.66;5001449;28;19921;-78
2023/10/02 14:22:07;;;;;;;;;;;;;;;25.84;42.65;101490.56;5004784;28;20292;-78
2023/10/02 14:24:59;;;;;;;;;;;;;;;25.92;41.82;101490.16;5010408;28;19926;-79
2023/10/02 14:27:52;;;;;;;;;;;;;;;25.97;42.00;101489.75;5014668;28;19918;-78
2023/10/02 14:30:44;;;;;;;;;;;;;;;26.21;40.54;101490.09;5008607;28;19918;-79
2023/10/02 14:33:36;;;;;;;;;;;;;;;26.47;39.47;101486.81;5008027;28;20311;-78
2023/10/02 14:36:28;;;;;;;;;;;;;;;26.73;38.70;101482.72;5003867;28;20380;-79
2023/10/02 14:39:21;;;;;;;;;;;;;;;26.48;40.49;101493.19;5007010;28;19918;-78
2023/10/02 14:42:17;;;;;;;;;;;;;;;26.33;40.48;101484.88;4999302;28;20311;-79
2023/10/02 14:45:07;;;;;;;;;;;;;;;25.97;41.84;101480.59;5003277;28;19929;-78
2023/10/02 14:47:59;;;;;;;;;;;;;;;25.94;41.24;101481.41;5012997;28;19918;-78
2023/10/02 14:50:51;;;;;;;;;;;;;;;25.77;42.15;101490.56;5007070;28;19949;-79
2023/10/02 14:53:45;;;;;;;;;;;;;;;25.66;42.12;101485.00;5000716;28;20407;-79
2023/10/02 14:56:37;;;;;;;;;;;;;;;25.52;42.30;101483.00;4997296;28;19918;-79
2023/10/02 14:59:29;;;;;;;;;;;;;;;25.43;43.20;101485.41;5009294;28;19921;-77
2023/10/02 15:02:21;;;;;;;;;;;;;;;25.78;42.30;101478.25;4998148;28;19929;-77
2023/10/02 15:05:19;;;;;;;;;;;;;;;25.71;42.42;101478.25;4993968;28;19918;-78
2023/10/02 15:08:12;;;;;;;;;;;;;;;25.67;42.74;101483.03;5016129;28;19925;-78
2023/10/02 15:11:04;;;;;;;;;;;;;;;25.60;42.19;101474.69;5006704;28;19917;-78
2023/10/02 15:13:56;;;;;;;;;;;;;;;25.82;42.10;101477.03;4995509;28;19925;-77
2023/10/02 15:16:48;;;;;;;;;;;;;;;25.89;41.47;101479.03;4993779;28;19918;-77
2023/10/02 15:19:40;;;;;;;;;;;;;;;26.18;40.13;101472.16;5011693;28;19917;-79
2023/10/02 15:22:32;;;;;;;;;;;;;;;26.16;41.11;101474.56;5009782;28;19918;-79
2023/10/02 15:25:26;;;;;;;;;;;;;;;26.04;41.41;101477.78;5013184;28;19925;-78
2023/10/02 15:28:18;;;;;;;;;;;;;;;26.13;40.96;101480.94;5001155;28;19917;-79
2023/10/02 15:31:12;;;;;;;;;;;;;;;26.10;41.37;101478.19;5016353;28;19917;-78
2023/10/02 15:34:04;;;;;;;;;;;;;;;26.19;40.83;101487.72;5017770;28;19922;-76
2023/10/02 15:37:01;;;;;;;;;;;;;;;25.92;41.81;101481.00;5008198;28;20383;-77
2023/10/02 15:39:53;;;;;;;;;;;;;;;25.93;42.22;101485.38;5001143;28;19917;-76
2023/10/02 15:42:45;;;;;;;;;;;;;;;25.81;42.22;101477.44;4995654;28;20384;-76
2023/10/02 15:45:37;;;;;;;;;;;;;;;25.86;41.99;101480.59;5009546;28;19921;-76